Hill Country Village, Texas
Current Conditions -  °F | °C
As of 10:51 AM on Wednesday 26 Nov 2014 (Local Time) from KSAT Reporting Station
Clear Clear  
Wind Chill: 64°   Ceiling: Unl
Heat Index: 64°   Visibility: 10mi
Dew Point: 35°   Wind: 10mph
Humidity: 34%   Direction: 220°SW
Pressure: 30.25"   Gusts: NA
Location:  29.5876°N, 98.474°W
Report Text: KSAT 261651Z 22009KT 10SM CLR 18/02 A3025 RMK AO2 SLP231 T01780017
Loading
Personal Weather Stations






























Interactive Weather Map New forecast layout! Learn more

10-Day Weather Forecast

Advertisements
Track Severe Weather on mobile